Time;durP1;ratioP1;P1;durP2;ratioP2;P2;SDS_P1;SDS_P2;PMS_P1;PMS_P2;Temp;Humidity;BMP_temperature;BMP_pressure;BME280_temperature;BME280_humidity;BME280_pressure;Samples;Min_cycle;Max_cycle;Signal;HPM_P1;HPM_P2
2024/03/08 00:01:36;;;;;;;3.70;3.40;;;;;;;;;;5023126;28;59339;-73
2024/03/08 00:04:01;;;;;;;3.70;3.40;;;;;;;;;;5009258;28;59209;-73
2024/03/08 00:06:26;;;;;;;4.60;4.20;;;;;;;;;;5021745;28;59253;-73
2024/03/08 00:08:51;;;;;;;3.78;3.45;;;;;;;;;;5022533;27;59333;-73
2024/03/08 00:11:17;;;;;;;4.80;4.20;;;;;;;;;;5014310;28;59343;-73
2024/03/08 00:13:42;;;;;;;4.45;4.05;;;;;;;;;;5007865;28;59311;-72
2024/03/08 00:16:09;;;;;;;3.67;3.37;;;;;;;;;;5002519;28;59717;-73
2024/03/08 00:18:34;;;;;;;3.78;3.47;;;;;;;;;;5023574;28;59353;-72
2024/03/08 00:21:00;;;;;;;4.20;3.80;;;;;;;;;;5013776;28;60143;-73
2024/03/08 00:23:25;;;;;;;3.75;3.45;;;;;;;;;;5015482;28;59271;-72
2024/03/08 00:25:50;;;;;;;4.47;4.07;;;;;;;;;;5025093;28;59315;-72
2024/03/08 00:28:16;;;;;;;3.88;3.58;;;;;;;;;;5027183;27;60311;-72
2024/03/08 00:30:42;;;;;;;4.03;3.63;;;;;;;;;;5020219;28;59242;-73
2024/03/08 00:33:07;;;;;;;3.80;3.50;;;;;;;;;;5027650;27;59389;-73
2024/03/08 00:35:33;;;;;;;3.93;3.63;;;;;;;;;;5021637;28;59316;-73
2024/03/08 00:37:58;;;;;;;4.47;3.60;;;;;;;;;;5020967;28;59386;-72
2024/03/08 00:40:23;;;;;;;4.10;3.70;;;;;;;;;;5022909;28;59319;-72
2024/03/08 00:42:48;;;;;;;3.77;3.47;;;;;;;;;;5023885;28;59221;-72
2024/03/08 00:45:13;;;;;;;3.78;3.47;;;;;;;;;;5008342;28;59390;-72
2024/03/08 00:47:38;;;;;;;4.20;3.77;;;;;;;;;;5015326;28;59199;-71
2024/03/08 00:50:04;;;;;;;3.57;3.27;;;;;;;;;;5020669;28;60290;-72
2024/03/08 00:52:29;;;;;;;4.13;3.75;;;;;;;;;;5022549;28;59282;-75
2024/03/08 00:54:54;;;;;;;3.58;3.28;;;;;;;;;;5027493;28;59771;-75
2024/03/08 00:57:21;;;;;;;3.03;2.83;;;;;;;;;;5032455;27;59417;-72
2024/03/08 00:59:46;;;;;;;3.15;2.95;;;;;;;;;;5017129;28;60626;-72
2024/03/08 01:02:12;;;;;;;3.80;3.42;;;;;;;;;;5014793;28;60213;-73
2024/03/08 01:04:37;;;;;;;3.67;3.38;;;;;;;;;;5030289;28;59180;-73
2024/03/08 01:07:02;;;;;;;3.40;3.20;;;;;;;;;;5031826;28;59351;-72
2024/03/08 01:09:27;;;;;;;3.77;3.47;;;;;;;;;;5010333;28;59413;-72
2024/03/08 01:11:54;;;;;;;3.70;3.22;;;;;;;;;;5022335;28;59153;-72
2024/03/08 01:14:19;;;;;;;4.35;3.55;;;;;;;;;;5018351;28;59160;-72
2024/03/08 01:16:44;;;;;;;3.45;3.15;;;;;;;;;;5008553;28;59204;-72
2024/03/08 01:19:09;;;;;;;2.87;2.67;;;;;;;;;;5009422;28;61169;-72
2024/03/08 01:21:35;;;;;;;3.65;3.35;;;;;;;;;;5032214;28;59607;-72
2024/03/08 01:24:00;;;;;;;2.88;2.67;;;;;;;;;;5016972;28;59359;-73
2024/03/08 01:26:25;;;;;;;3.57;3.27;;;;;;;;;;5021723;28;59769;-75
2024/03/08 01:28:50;;;;;;;3.67;3.38;;;;;;;;;;5025670;28;59206;-72
2024/03/08 01:31:15;;;;;;;3.10;2.90;;;;;;;;;;5033004;28;59253;-73
2024/03/08 01:33:41;;;;;;;4.05;3.65;;;;;;;;;;5031461;28;60165;-72
2024/03/08 01:36:06;;;;;;;3.55;3.25;;;;;;;;;;5032226;28;59218;-72
2024/03/08 01:38:31;;;;;;;2.70;2.50;;;;;;;;;;5028613;28;59931;-75
2024/03/08 01:40:56;;;;;;;3.03;2.83;;;;;;;;;;5032073;28;59358;-75
2024/03/08 01:43:24;;;;;;;2.90;2.70;;;;;;;;;;5026657;28;59325;-75
2024/03/08 01:45:50;;;;;;;3.85;3.55;;;;;;;;;;5031555;28;60285;-75
2024/03/08 01:48:16;;;;;;;3.70;3.40;;;;;;;;;;5028504;28;59385;-75
2024/03/08 01:50:41;;;;;;;3.33;3.03;;;;;;;;;;5030090;28;59253;-75
2024/03/08 01:53:09;;;;;;;3.07;2.87;;;;;;;;;;5028054;28;59971;-74
2024/03/08 01:55:35;;;;;;;3.60;3.30;;;;;;;;;;5030303;28;59254;-74
2024/03/08 01:58:01;;;;;;;2.75;2.55;;;;;;;;;;5028036;28;61033;-74
2024/03/08 02:00:26;;;;;;;2.95;2.75;;;;;;;;;;5026812;28;59788;-74
2024/03/08 02:02:53;;;;;;;2.90;2.70;;;;;;;;;;5033299;28;58671;-74
2024/03/08 02:05:19;;;;;;;2.30;2.10;;;;;;;;;;5027003;28;60453;-74
2024/03/08 02:07:44;;;;;;;2.93;2.70;;;;;;;;;;5030638;28;59836;-74
2024/03/08 02:10:09;;;;;;;3.43;3.13;;;;;;;;;;5034334;28;59174;-74
2024/03/08 02:12:34;;;;;;;2.72;2.53;;;;;;;;;;5025589;28;60968;-73
2024/03/08 02:15:00;;;;;;;3.07;2.77;;;;;;;;;;5015822;28;59253;-75
2024/03/08 02:17:25;;;;;;;2.87;2.63;;;;;;;;;;5015455;28;59052;-74
2024/03/08 02:19:50;;;;;;;3.10;2.80;;;;;;;;;;5030405;28;59193;-74
2024/03/08 02:22:15;;;;;;;3.70;3.00;;;;;;;;;;5031384;28;59354;-74
2024/03/08 02:24:41;;;;;;;2.60;2.40;;;;;;;;;;5027668;28;61121;-74
2024/03/08 02:27:06;;;;;;;2.95;2.70;;;;;;;;;;5032283;28;60483;-74
2024/03/08 02:29:33;;;;;;;2.97;2.78;;;;;;;;;;5027346;28;59304;-74
2024/03/08 02:31:59;;;;;;;3.08;2.78;;;;;;;;;;5026670;28;59229;-74
2024/03/08 02:34:24;;;;;;;3.35;3.05;;;;;;;;;;5020539;28;59337;-74
2024/03/08 02:36:49;;;;;;;2.40;2.20;;;;;;;;;;5032652;28;59152;-75
2024/03/08 02:39:14;;;;;;;3.28;2.97;;;;;;;;;;5026896;28;59191;-74
2024/03/08 02:41:39;;;;;;;2.88;2.60;;;;;;;;;;5012656;28;59131;-74
2024/03/08 02:44:04;;;;;;;2.92;2.65;;;;;;;;;;5011713;28;60176;-74
2024/03/08 02:46:30;;;;;;;2.85;2.63;;;;;;;;;;5020719;28;59533;-74
2024/03/08 02:48:55;;;;;;;2.75;2.55;;;;;;;;;;5029395;28;59164;-73
2024/03/08 02:51:20;;;;;;;2.35;2.15;;;;;;;;;;5034874;28;59584;-72
2024/03/08 02:53:48;;;;;;;3.30;3.00;;;;;;;;;;5031583;28;59599;-72
2024/03/08 02:56:16;;;;;;;2.90;2.70;;;;;;;;;;5027981;28;59476;-72
2024/03/08 02:58:42;;;;;;;3.15;2.90;;;;;;;;;;5031275;28;59316;-72
2024/03/08 03:01:08;;;;;;;2.67;2.47;;;;;;;;;;5028994;28;59377;-73
2024/03/08 03:03:33;;;;;;;3.47;2.90;;;;;;;;;;5035318;28;61140;-72
2024/03/08 03:05:58;;;;;;;3.40;2.73;;;;;;;;;;5030634;28;59230;-72
2024/03/08 03:08:23;;;;;;;2.80;2.55;;;;;;;;;;5036382;28;59075;-72
2024/03/08 03:10:49;;;;;;;3.05;2.70;;;;;;;;;;5031269;28;61141;-72
2024/03/08 03:13:14;;;;;;;3.50;3.20;;;;;;;;;;5033792;27;59712;-73
2024/03/08 03:15:41;;;;;;;2.60;2.40;;;;;;;;;;5034170;28;59209;-73
2024/03/08 03:18:07;;;;;;;2.42;2.22;;;;;;;;;;5032209;28;61151;-73
2024/03/08 03:20:32;;;;;;;2.60;2.40;;;;;;;;;;5033066;28;59795;-73
2024/03/08 03:23:00;;;;;;;2.57;2.37;;;;;;;;;;5032059;28;59305;-73
2024/03/08 03:25:28;;;;;;;2.42;2.22;;;;;;;;;;5029631;28;59308;-73
2024/03/08 03:27:56;;;;;;;2.22;2.05;;;;;;;;;;5038341;28;59170;-73
2024/03/08 03:30:21;;;;;;;2.73;2.47;;;;;;;;;;5032136;28;60632;-75
2024/03/08 03:32:47;;;;;;;2.27;2.07;;;;;;;;;;5033262;28;59405;-75
2024/03/08 03:35:13;;;;;;;2.78;2.58;;;;;;;;;;5034504;28;59246;-73
2024/03/08 03:37:39;;;;;;;3.00;2.80;;;;;;;;;;5032289;28;61171;-73
2024/03/08 03:40:05;;;;;;;2.78;2.53;;;;;;;;;;5031822;28;60880;-73
2024/03/08 03:42:30;;;;;;;2.55;2.35;;;;;;;;;;5031238;28;59448;-73
2024/03/08 03:44:55;;;;;;;2.40;2.20;;;;;;;;;;5035112;27;59293;-73
2024/03/08 03:47:21;;;;;;;3.42;3.17;;;;;;;;;;5031729;28;59251;-73
2024/03/08 03:49:46;;;;;;;2.20;2.00;;;;;;;;;;5027883;28;59300;-73
2024/03/08 03:52:11;;;;;;;2.67;2.33;;;;;;;;;;5029361;28;59358;-73
2024/03/08 03:54:36;;;;;;;2.88;2.67;;;;;;;;;;5029522;28;59087;-73
2024/03/08 03:57:02;;;;;;;2.87;2.67;;;;;;;;;;5029258;27;60718;-73
2024/03/08 03:59:27;;;;;;;2.50;2.30;;;;;;;;;;5035071;28;59295;-73
2024/03/08 04:01:53;;;;;;;2.30;2.10;;;;;;;;;;5027428;27;59043;-72
2024/03/08 04:04:18;;;;;;;2.75;2.55;;;;;;;;;;5028563;28;59971;-73
2024/03/08 04:06:44;;;;;;;2.70;2.50;;;;;;;;;;5012453;28;59156;-73
2024/03/08 04:09:09;;;;;;;3.05;2.85;;;;;;;;;;5024859;28;61200;-73
2024/03/08 04:11:35;;;;;;;2.38;2.17;;;;;;;;;;5032488;28;59335;-73
2024/03/08 04:14:00;;;;;;;2.60;2.40;;;;;;;;;;5029365;28;59327;-73
2024/03/08 04:16:25;;;;;;;2.60;2.40;;;;;;;;;;5036052;28;60296;-74
2024/03/08 04:18:51;;;;;;;1.80;1.67;;;;;;;;;;5034781;28;59141;-73
2024/03/08 04:21:16;;;;;;;2.53;2.30;;;;;;;;;;5033222;28;59432;-71
2024/03/08 04:23:43;;;;;;;2.67;2.47;;;;;;;;;;5019996;28;60615;-72
2024/03/08 04:26:08;;;;;;;2.50;2.30;;;;;;;;;;5018883;28;59192;-72
2024/03/08 04:28:34;;;;;;;2.58;2.38;;;;;;;;;;5031170;28;60196;-72
2024/03/08 04:31:00;;;;;;;2.33;2.13;;;;;;;;;;5032043;28;59255;-72
2024/03/08 04:33:25;;;;;;;2.60;2.40;;;;;;;;;;5034032;28;59242;-72
2024/03/08 04:35:51;;;;;;;3.00;2.03;;;;;;;;;;5031537;28;60293;-71
2024/03/08 04:38:16;;;;;;;2.47;2.28;;;;;;;;;;5030773;28;59087;-72
2024/03/08 04:40:41;;;;;;;3.37;3.07;;;;;;;;;;5030399;28;59107;-72
2024/03/08 04:43:08;;;;;;;2.30;2.10;;;;;;;;;;5031135;28;60412;-71
2024/03/08 04:45:33;;;;;;;2.13;1.92;;;;;;;;;;5031777;28;60169;-71
2024/03/08 04:47:58;;;;;;;2.05;1.95;;;;;;;;;;5034326;28;60376;-72
2024/03/08 04:50:24;;;;;;;2.77;2.47;;;;;;;;;;5035922;28;59270;-72
2024/03/08 04:52:49;;;;;;;2.30;2.13;;;;;;;;;;5030775;28;59290;-72
2024/03/08 04:55:14;;;;;;;2.63;2.43;;;;;;;;;;5034090;28;61566;-72
2024/03/08 04:57:39;;;;;;;3.25;2.95;;;;;;;;;;5030469;28;59665;-72
2024/03/08 05:00:11;;;;;;;2.53;2.33;;;;;;;;;;5034200;28;59298;-72
2024/03/08 05:02:36;;;;;;;2.67;2.47;;;;;;;;;;5025693;28;60223;-72
2024/03/08 05:05:02;;;;;;;2.67;2.20;;;;;;;;;;5029214;27;60362;-72
2024/03/08 05:07:27;;;;;;;2.60;2.40;;;;;;;;;;5028663;28;59278;-72
2024/03/08 05:09:52;;;;;;;2.87;2.67;;;;;;;;;;5025569;28;59447;-72
2024/03/08 05:12:18;;;;;;;2.60;2.40;;;;;;;;;;5022055;28;59346;-72
2024/03/08 05:14:43;;;;;;;3.03;2.72;;;;;;;;;;5027814;28;59511;-72
2024/03/08 05:17:09;;;;;;;2.63;2.20;;;;;;;;;;5026981;28;59235;-72
2024/03/08 05:19:35;;;;;;;2.92;2.53;;;;;;;;;;5029915;28;59116;-72
2024/03/08 05:22:00;;;;;;;2.20;2.00;;;;;;;;;;5030467;28;60381;-72
2024/03/08 05:24:26;;;;;;;3.10;2.80;;;;;;;;;;5028381;28;59278;-71
2024/03/08 05:26:51;;;;;;;5.50;4.70;;;;;;;;;;5021541;28;59538;-72
2024/03/08 05:29:18;;;;;;;6.22;4.63;;;;;;;;;;5027365;28;61008;-70
2024/03/08 05:31:50;;;;;;;6.63;4.50;;;;;;;;;;5017816;28;59185;-76
2024/03/08 05:34:19;;;;;;;6.05;4.65;;;;;;;;;;5010873;28;60373;-78
2024/03/08 05:36:46;;;;;;;14.55;5.15;;;;;;;;;;5011997;28;59503;-76
2024/03/08 05:39:11;;;;;;;5.10;4.60;;;;;;;;;;5008580;28;59279;-83
2024/03/08 05:41:37;;;;;;;4.80;4.35;;;;;;;;;;5022320;28;60350;-69
2024/03/08 05:44:02;;;;;;;4.93;3.80;;;;;;;;;;5023209;28;59333;-69
2024/03/08 05:46:27;;;;;;;5.87;3.80;;;;;;;;;;5029905;28;59260;-69
2024/03/08 05:48:54;;;;;;;5.18;4.07;;;;;;;;;;5029022;28;61235;-69
2024/03/08 05:51:21;;;;;;;4.88;3.85;;;;;;;;;;5032766;28;59298;-69
2024/03/08 05:53:46;;;;;;;4.30;3.63;;;;;;;;;;5031463;28;61099;-69
2024/03/08 05:56:11;;;;;;;7.53;4.55;;;;;;;;;;5028388;28;59511;-69
2024/03/08 05:58:36;;;;;;;6.00;4.20;;;;;;;;;;5029239;28;59352;-69
2024/03/08 06:01:01;;;;;;;4.20;3.63;;;;;;;;;;5030244;28;61139;-69
2024/03/08 06:03:26;;;;;;;4.30;3.38;;;;;;;;;;5026922;28;59504;-68
2024/03/08 06:05:52;;;;;;;6.90;4.60;;;;;;;;;;5026682;28;59265;-69
2024/03/08 06:08:18;;;;;;;6.03;3.88;;;;;;;;;;5021564;28;60439;-68
2024/03/08 06:10:44;;;;;;;5.40;3.50;;;;;;;;;;5019663;28;59890;-69
2024/03/08 06:13:09;;;;;;;4.70;3.30;;;;;;;;;;5021058;28;61226;-69
2024/03/08 06:15:34;;;;;;;5.00;3.90;;;;;;;;;;5033490;28;59302;-69
2024/03/08 06:17:59;;;;;;;5.45;3.95;;;;;;;;;;5028331;28;59377;-69
2024/03/08 06:20:26;;;;;;;6.30;4.03;;;;;;;;;;5026993;28;61364;-69
2024/03/08 06:22:51;;;;;;;6.22;4.00;;;;;;;;;;5032303;28;59395;-68
2024/03/08 06:25:16;;;;;;;5.78;3.47;;;;;;;;;;5029638;28;59143;-69
2024/03/08 06:27:46;;;;;;;5.23;3.50;;;;;;;;;;5033879;28;61115;-69
2024/03/08 06:30:12;;;;;;;6.10;3.72;;;;;;;;;;5030028;28;59970;-69
2024/03/08 06:32:37;;;;;;;6.20;3.20;;;;;;;;;;5034049;28;59367;-69
2024/03/08 06:35:06;;;;;;;3.50;3.17;;;;;;;;;;5029302;28;59369;-69
2024/03/08 06:37:34;;;;;;;5.25;3.55;;;;;;;;;;5029221;28;58967;-69
2024/03/08 06:40:00;;;;;;;4.57;3.63;;;;;;;;;;5029340;28;60099;-68
2024/03/08 06:42:25;;;;;;;4.13;3.15;;;;;;;;;;5027799;28;59272;-69
2024/03/08 06:44:51;;;;;;;4.03;3.63;;;;;;;;;;5030183;28;59374;-69
2024/03/08 06:47:16;;;;;;;7.33;3.43;;;;;;;;;;5028056;28;59346;-69
2024/03/08 06:49:44;;;;;;;6.07;3.60;;;;;;;;;;5026143;28;59339;-69
2024/03/08 06:52:10;;;;;;;7.57;3.95;;;;;;;;;;5029516;28;59305;-69
2024/03/08 06:54:38;;;;;;;5.97;4.03;;;;;;;;;;5030417;28;60233;-69
2024/03/08 06:57:04;;;;;;;4.85;3.60;;;;;;;;;;5028220;28;59467;-69
2024/03/08 06:59:30;;;;;;;7.22;4.45;;;;;;;;;;5030792;28;60711;-69
2024/03/08 07:01:55;;;;;;;6.00;4.20;;;;;;;;;;5024731;28;59335;-69
2024/03/08 07:04:21;;;;;;;5.00;3.85;;;;;;;;;;5014982;28;59201;-69
2024/03/08 07:06:47;;;;;;;4.75;4.03;;;;;;;;;;5026262;28;59604;-69
2024/03/08 07:09:13;;;;;;;7.18;5.13;;;;;;;;;;5029471;28;59654;-69
2024/03/08 07:11:38;;;;;;;3.93;3.53;;;;;;;;;;5016912;28;59140;-69
2024/03/08 07:14:05;;;;;;;4.77;3.83;;;;;;;;;;5010696;28;60914;-69
2024/03/08 07:16:30;;;;;;;6.67;4.03;;;;;;;;;;5011112;28;59633;-69
2024/03/08 07:18:58;;;;;;;8.60;4.73;;;;;;;;;;5004482;28;59309;-68
2024/03/08 07:21:24;;;;;;;7.53;4.45;;;;;;;;;;5029764;28;59251;-69
2024/03/08 07:26:27;;;;;;;4.22;3.83;;;;;;;;;;5014078;28;59343;-68
2024/03/08 07:28:54;;;;;;;5.90;3.88;;;;;;;;;;5027766;28;59327;-69
2024/03/08 07:34:07;;;;;;;5.53;3.70;;;;;;;;;;5018214;28;59593;-68
2024/03/08 07:36:35;;;;;;;6.03;3.40;;;;;;;;;;5030843;28;59432;-68
2024/03/08 07:39:01;;;;;;;5.57;4.18;;;;;;;;;;5025421;28;59278;-69
2024/03/08 07:41:26;;;;;;;6.28;4.05;;;;;;;;;;5024023;28;59854;-69
2024/03/08 07:43:52;;;;;;;8.13;3.97;;;;;;;;;;5022905;28;59279;-68
2024/03/08 07:46:18;;;;;;;5.70;4.13;;;;;;;;;;5027821;28;61288;-69
2024/03/08 07:48:44;;;;;;;5.90;4.18;;;;;;;;;;5031235;28;59377;-69
2024/03/08 07:51:10;;;;;;;6.00;3.88;;;;;;;;;;5036067;28;59164;-71
2024/03/08 07:53:37;;;;;;;5.28;4.18;;;;;;;;;;5033347;27;59490;-69
2024/03/08 07:56:04;;;;;;;5.25;3.90;;;;;;;;;;5032023;28;59253;-68
2024/03/08 07:58:29;;;;;;;5.78;3.97;;;;;;;;;;5031588;28;58942;-68
2024/03/08 08:00:55;;;;;;;5.88;3.33;;;;;;;;;;5029962;28;60977;-69
2024/03/08 08:03:20;;;;;;;5.43;3.87;;;;;;;;;;5037974;28;59300;-68
2024/03/08 08:05:46;;;;;;;4.43;3.72;;;;;;;;;;5027926;28;60664;-68
2024/03/08 08:08:11;;;;;;;6.65;4.07;;;;;;;;;;5036671;28;59292;-67
2024/03/08 08:10:37;;;;;;;6.60;3.70;;;;;;;;;;5027970;28;59309;-69
2024/03/08 08:13:04;;;;;;;6.70;4.45;;;;;;;;;;5028836;28;61277;-68
2024/03/08 08:15:29;;;;;;;6.72;3.70;;;;;;;;;;5031853;27;59214;-68
2024/03/08 08:17:54;;;;;;;5.20;4.68;;;;;;;;;;5029478;28;59217;-68
2024/03/08 08:20:19;;;;;;;4.50;3.33;;;;;;;;;;5031249;28;60928;-68
2024/03/08 08:22:44;;;;;;;4.87;3.63;;;;;;;;;;5028147;28;59217;-68
2024/03/08 08:25:12;;;;;;;4.43;3.90;;;;;;;;;;5009492;28;60821;-68
2024/03/08 08:27:39;;;;;;;;;;;;;;;;;;5003536;28;63066;-68
2024/03/08 08:30:07;;;;;;;4.43;3.03;;;;;;;;;;5026703;28;59314;-69
2024/03/08 08:32:33;;;;;;;3.72;2.83;;;;;;;;;;5029834;28;60949;-68
2024/03/08 08:34:59;;;;;;;4.65;3.65;;;;;;;;;;5030653;28;59656;-68
2024/03/08 08:37:24;;;;;;;5.22;3.97;;;;;;;;;;5030570;28;59051;-68
2024/03/08 08:39:51;;;;;;;5.80;4.32;;;;;;;;;;5028709;28;59286;-69
2024/03/08 08:42:17;;;;;;;4.13;3.42;;;;;;;;;;5029491;28;59202;-68
2024/03/08 08:44:42;;;;;;;5.50;3.70;;;;;;;;;;5031047;28;60289;-68
2024/03/08 08:47:07;;;;;;;4.10;2.73;;;;;;;;;;5034382;28;59817;-68
2024/03/08 08:49:33;;;;;;;3.83;3.45;;;;;;;;;;5033955;28;59262;-68
2024/03/08 08:51:58;;;;;;;5.27;4.40;;;;;;;;;;5034595;28;59562;-68
2024/03/08 08:54:24;;;;;;;5.63;3.30;;;;;;;;;;5030189;28;59322;-68
2024/03/08 08:56:50;;;;;;;4.60;3.80;;;;;;;;;;5031531;28;59237;-68
2024/03/08 08:59:16;;;;;;;3.57;3.10;;;;;;;;;;5031674;28;59298;-68
2024/03/08 09:01:41;;;;;;;7.10;3.75;;;;;;;;;;5030598;27;59347;-68
2024/03/08 09:04:07;;;;;;;6.00;3.63;;;;;;;;;;5030758;28;59064;-68
2024/03/08 09:06:32;;;;;;;5.22;3.53;;;;;;;;;;5024776;28;59309;-69
2024/03/08 09:08:58;;;;;;;5.87;3.53;;;;;;;;;;5031809;28;59131;-68
2024/03/08 09:11:25;;;;;;;3.87;3.10;;;;;;;;;;5033894;28;60344;-68
2024/03/08 09:13:50;;;;;;;3.97;3.00;;;;;;;;;;5026684;28;59307;-68
2024/03/08 09:16:15;;;;;;;4.40;3.83;;;;;;;;;;5028401;28;59314;-68
2024/03/08 09:18:41;;;;;;;3.80;3.35;;;;;;;;;;5030593;28;59584;-69
2024/03/08 09:21:09;;;;;;;4.40;3.92;;;;;;;;;;5028519;27;59199;-68
2024/03/08 09:23:35;;;;;;;5.28;3.08;;;;;;;;;;5027538;27;59257;-68
2024/03/08 09:26:01;;;;;;;3.28;2.97;;;;;;;;;;5031362;28;59495;-69
2024/03/08 09:28:27;;;;;;;4.03;3.30;;;;;;;;;;5032198;28;59302;-68
2024/03/08 09:30:52;;;;;;;4.15;3.40;;;;;;;;;;5027800;28;60210;-68
2024/03/08 09:33:19;;;;;;;4.40;3.30;;;;;;;;;;5029965;28;59386;-68
2024/03/08 09:35:46;;;;;;;3.47;3.17;;;;;;;;;;5030689;28;59217;-69
2024/03/08 09:38:13;;;;;;;3.23;2.93;;;;;;;;;;5028229;28;60997;-68
2024/03/08 09:40:38;;;;;;;4.32;3.70;;;;;;;;;;5028226;28;59404;-69
2024/03/08 09:43:03;;;;;;;2.97;2.77;;;;;;;;;;5031744;28;59445;-68
2024/03/08 09:45:31;;;;;;;11.48;3.13;;;;;;;;;;5028563;28;61134;-68
2024/03/08 09:47:57;;;;;;;3.13;2.70;;;;;;;;;;5028285;28;59440;-68
2024/03/08 09:50:22;;;;;;;3.55;3.25;;;;;;;;;;5030489;27;60806;-68
2024/03/08 09:52:48;;;;;;;6.10;3.47;;;;;;;;;;5031340;28;59748;-68
2024/03/08 09:55:17;;;;;;;4.80;2.90;;;;;;;;;;5025704;28;59260;-69
2024/03/08 09:58:16;;;;;;;4.40;3.45;;;;;;;;;;5029506;28;60219;-68
2024/03/08 10:00:28;;;;;;;4.32;3.03;;;;;;;;;;5027801;28;59266;-68
2024/03/08 10:02:53;;;;;;;3.40;3.10;;;;;;;;;;5016802;28;59453;-68
2024/03/08 10:05:18;;;;;;;5.78;2.95;;;;;;;;;;5020560;28;60143;-68
2024/03/08 10:07:44;;;;;;;3.43;2.90;;;;;;;;;;5031486;28;59299;-69
2024/03/08 10:10:11;;;;;;;3.73;3.37;;;;;;;;;;5032530;28;59124;-68
2024/03/08 10:12:37;;;;;;;4.72;3.20;;;;;;;;;;5026877;28;59235;-68
2024/03/08 10:15:02;;;;;;;3.83;3.13;;;;;;;;;;5031132;28;59168;-69
2024/03/08 10:17:32;;;;;;;3.00;2.70;;;;;;;;;;5030470;28;60112;-69
2024/03/08 10:19:58;;;;;;;2.90;2.70;;;;;;;;;;5026427;28;59362;-69
2024/03/08 10:22:25;;;;;;;4.68;3.00;;;;;;;;;;5029063;28;59180;-68
2024/03/08 10:24:50;;;;;;;3.40;3.10;;;;;;;;;;5007376;28;59935;-68
2024/03/08 10:27:18;;;;;;;3.50;3.03;;;;;;;;;;5025306;28;59415;-68
2024/03/08 10:29:47;;;;;;;3.63;3.00;;;;;;;;;;5031045;28;59442;-69
2024/03/08 10:32:12;;;;;;;3.92;3.20;;;;;;;;;;5030468;28;59272;-69
2024/03/08 10:34:38;;;;;;;4.63;3.70;;;;;;;;;;5029712;28;59464;-69
2024/03/08 10:37:04;;;;;;;4.37;3.07;;;;;;;;;;5032505;28;60357;-69
2024/03/08 10:39:31;;;;;;;4.03;3.63;;;;;;;;;;5030356;28;59207;-68
2024/03/08 10:41:57;;;;;;;3.58;3.22;;;;;;;;;;5026219;28;59325;-68
2024/03/08 10:44:29;;;;;;;3.28;2.97;;;;;;;;;;5031121;28;60393;-68
2024/03/08 10:47:05;;;;;;;5.90;3.38;;;;;;;;;;5030742;28;59417;-68
2024/03/08 10:49:47;;;;;;;3.75;3.45;;;;;;;;;;5028596;28;59228;-68
2024/03/08 10:52:13;;;;;;;2.72;2.53;;;;;;;;;;5027912;27;60376;-68
2024/03/08 10:54:39;;;;;;;3.20;2.78;;;;;;;;;;5024734;28;59052;-68
2024/03/08 10:57:05;;;;;;;4.60;2.92;;;;;;;;;;5030096;28;60440;-68
2024/03/08 10:59:31;;;;;;;4.03;3.20;;;;;;;;;;5022115;28;59370;-68
2024/03/08 11:01:57;;;;;;;2.83;2.60;;;;;;;;;;5026226;28;59247;-68
2024/03/08 11:04:23;;;;;;;3.63;3.28;;;;;;;;;;5011146;28;61804;-69
2024/03/08 11:06:51;;;;;;;4.00;3.35;;;;;;;;;;5024893;28;59664;-68
2024/03/08 11:09:30;;;;;;;3.10;2.90;;;;;;;;;;5031084;27;59287;-69
2024/03/08 11:12:15;;;;;;;2.88;2.67;;;;;;;;;;5027137;28;60257;-68
2024/03/08 11:14:44;;;;;;;4.00;3.60;;;;;;;;;;5030287;28;59252;-68
2024/03/08 11:17:09;;;;;;;3.08;2.78;;;;;;;;;;5025243;28;61469;-69
2024/03/08 11:19:34;;;;;;;3.50;3.10;;;;;;;;;;5027096;28;59456;-68
2024/03/08 11:22:00;;;;;;;3.60;3.30;;;;;;;;;;5026072;28;59159;-68
2024/03/08 11:24:27;;;;;;;4.22;3.60;;;;;;;;;;5028309;27;60309;-68
2024/03/08 11:26:56;;;;;;;4.03;3.67;;;;;;;;;;5028617;28;59988;-69
2024/03/08 11:29:27;;;;;;;3.42;3.13;;;;;;;;;;5030766;28;59240;-67
2024/03/08 11:31:52;;;;;;;4.75;3.38;;;;;;;;;;5030332;28;61162;-68
2024/03/08 11:34:18;;;;;;;2.93;2.63;;;;;;;;;;5033089;28;59831;-69
2024/03/08 11:36:47;;;;;;;3.38;3.08;;;;;;;;;;5036913;28;59243;-68
2024/03/08 11:39:14;;;;;;;3.42;3.13;;;;;;;;;;5021835;28;59400;-68
2024/03/08 11:41:41;;;;;;;3.30;3.00;;;;;;;;;;5034111;27;59128;-68
2024/03/08 11:44:07;;;;;;;3.35;2.75;;;;;;;;;;5028505;28;59972;-68
2024/03/08 11:46:32;;;;;;;3.20;2.80;;;;;;;;;;5012683;28;59814;-67
2024/03/08 11:48:57;;;;;;;3.73;2.73;;;;;;;;;;5034142;28;59181;-67
2024/03/08 11:51:23;;;;;;;3.65;3.35;;;;;;;;;;5038911;28;59431;-68
2024/03/08 11:53:49;;;;;;;3.22;2.92;;;;;;;;;;5039530;28;59286;-68
2024/03/08 11:56:15;;;;;;;3.28;2.97;;;;;;;;;;5039632;27;59170;-68
2024/03/08 11:58:40;;;;;;;3.45;3.15;;;;;;;;;;5033301;27;61077;-69
2024/03/08 12:01:07;;;;;;;2.93;2.63;;;;;;;;;;5031706;28;59183;-67
2024/03/08 12:03:33;;;;;;;3.17;2.85;;;;;;;;;;5031811;28;59348;-68
2024/03/08 12:05:59;;;;;;;2.95;2.65;;;;;;;;;;5029448;28;59355;-68
2024/03/08 12:08:28;;;;;;;5.25;2.95;;;;;;;;;;5027087;28;59276;-68
2024/03/08 12:10:55;;;;;;;3.08;2.78;;;;;;;;;;5030802;28;60311;-69
2024/03/08 12:13:20;;;;;;;3.83;2.70;;;;;;;;;;5031067;28;59945;-69
2024/03/08 12:15:46;;;;;;;3.50;3.20;;;;;;;;;;5028594;28;59142;-68
2024/03/08 12:18:12;;;;;;;2.73;2.47;;;;;;;;;;5030359;28;61268;-69
2024/03/08 12:20:39;;;;;;;3.17;2.88;;;;;;;;;;5031257;27;58996;-68
2024/03/08 12:23:05;;;;;;;2.83;2.63;;;;;;;;;;5026116;28;61133;-68
2024/03/08 12:25:36;;;;;;;2.38;2.17;;;;;;;;;;5013233;28;59138;-68
2024/03/08 12:28:10;;;;;;;2.80;2.60;;;;;;;;;;5031108;28;59442;-68
2024/03/08 12:30:37;;;;;;;3.10;2.85;;;;;;;;;;5033625;28;59591;-68
2024/03/08 12:33:02;;;;;;;3.22;2.92;;;;;;;;;;5029889;28;59585;-69
2024/03/08 12:35:28;;;;;;;3.10;2.55;;;;;;;;;;5036083;28;59660;-69
2024/03/08 12:37:55;;;;;;;2.90;2.65;;;;;;;;;;5033789;28;59443;-68
2024/03/08 12:40:28;;;;;;;3.20;2.90;;;;;;;;;;5027212;28;59334;-68
2024/03/08 12:42:53;;;;;;;3.60;3.30;;;;;;;;;;5031173;28;60352;-68
2024/03/08 12:45:18;;;;;;;3.38;3.03;;;;;;;;;;5030353;28;59299;-68
2024/03/08 12:47:43;;;;;;;3.23;3.03;;;;;;;;;;5032866;27;59428;-68
2024/03/08 12:50:09;;;;;;;4.13;2.93;;;;;;;;;;5033478;28;61736;-68
2024/03/08 12:52:34;;;;;;;2.88;2.67;;;;;;;;;;5030816;28;59326;-68
2024/03/08 12:55:06;;;;;;;3.37;3.07;;;;;;;;;;5032134;28;59138;-68
2024/03/08 12:57:32;;;;;;;3.08;2.55;;;;;;;;;;5025572;28;59360;-68
2024/03/08 12:59:57;;;;;;;2.83;2.60;;;;;;;;;;5026173;28;59223;-68
2024/03/08 13:02:22;;;;;;;3.13;2.83;;;;;;;;;;5027928;28;59231;-68
2024/03/08 13:04:55;;;;;;;2.53;2.33;;;;;;;;;;5024918;28;59410;-68
2024/03/08 13:07:20;;;;;;;3.00;2.80;;;;;;;;;;5025045;28;59341;-68
2024/03/08 13:09:46;;;;;;;3.00;2.80;;;;;;;;;;5025400;28;60086;-68
2024/03/08 13:12:11;;;;;;;2.60;2.40;;;;;;;;;;5026833;28;59316;-68
2024/03/08 13:14:37;;;;;;;2.70;2.07;;;;;;;;;;5029739;28;59136;-68
2024/03/08 13:17:03;;;;;;;2.78;2.58;;;;;;;;;;5033064;28;61347;-68
2024/03/08 13:19:29;;;;;;;3.28;3.05;;;;;;;;;;5027918;28;59319;-68
2024/03/08 13:21:54;;;;;;;3.67;3.37;;;;;;;;;;5035040;28;59259;-70
2024/03/08 13:24:19;;;;;;;3.28;3.08;;;;;;;;;;5009067;28;59858;-68
2024/03/08 13:26:45;;;;;;;3.95;3.00;;;;;;;;;;5017126;28;59164;-78
2024/03/08 13:29:10;;;;;;;3.83;3.53;;;;;;;;;;5026413;28;60726;-78
2024/03/08 13:31:36;;;;;;;3.43;3.13;;;;;;;;;;5025615;28;59339;-78
2024/03/08 13:34:01;;;;;;;4.53;2.97;;;;;;;;;;5029549;28;59455;-78
2024/03/08 13:36:35;;;;;;;2.70;2.50;;;;;;;;;;5029656;28;60229;-78
2024/03/08 13:39:00;;;;;;;3.80;2.58;;;;;;;;;;5009363;28;59933;-78
2024/03/08 13:41:25;;;;;;;3.33;3.03;;;;;;;;;;5017612;28;59403;-79
2024/03/08 13:43:50;;;;;;;3.60;2.93;;;;;;;;;;5022195;28;59662;-79
2024/03/08 13:46:16;;;;;;;3.33;2.90;;;;;;;;;;5016830;28;59363;-79
2024/03/08 13:48:41;;;;;;;2.83;2.60;;;;;;;;;;5028117;28;61072;-79
2024/03/08 13:51:07;;;;;;;3.40;3.10;;;;;;;;;;5025767;28;59382;-79
2024/03/08 13:53:35;;;;;;;2.85;2.65;;;;;;;;;;5025329;28;59222;-79
2024/03/08 13:56:01;;;;;;;2.80;2.58;;;;;;;;;;5021887;28;60305;-79
2024/03/08 13:58:27;;;;;;;3.28;2.53;;;;;;;;;;5018271;28;59444;-79
2024/03/08 14:00:52;;;;;;;4.00;2.93;;;;;;;;;;5027119;28;59131;-79
2024/03/08 14:03:17;;;;;;;3.60;3.30;;;;;;;;;;5019182;28;60026;-79
2024/03/08 14:05:43;;;;;;;2.78;2.58;;;;;;;;;;5023165;28;60105;-79
2024/03/08 14:08:12;;;;;;;2.95;2.72;;;;;;;;;;5023984;28;59202;-79
2024/03/08 14:10:37;;;;;;;3.30;2.78;;;;;;;;;;5015361;28;60873;-79
2024/03/08 14:13:04;;;;;;;3.37;2.77;;;;;;;;;;5014401;28;59281;-79
2024/03/08 14:15:29;;;;;;;3.25;2.88;;;;;;;;;;5018158;28;60302;-79
2024/03/08 14:17:55;;;;;;;3.40;3.10;;;;;;;;;;5014869;28;59847;-79
2024/03/08 14:20:25;;;;;;;3.50;2.72;;;;;;;;;;5016146;28;59258;-79
2024/03/08 14:22:51;;;;;;;3.58;3.25;;;;;;;;;;5013746;28;60309;-79
2024/03/08 14:25:19;;;;;;;3.15;2.85;;;;;;;;;;5017932;28;59438;-79
2024/03/08 14:27:45;;;;;;;2.72;2.53;;;;;;;;;;5017476;28;59182;-79
2024/03/08 14:30:11;;;;;;;2.83;2.47;;;;;;;;;;5014141;28;59747;-79
2024/03/08 14:32:38;;;;;;;2.88;2.60;;;;;;;;;;5012166;28;59264;-79
2024/03/08 14:35:03;;;;;;;2.75;2.50;;;;;;;;;;5011717;28;60343;-79
2024/03/08 14:37:29;;;;;;;2.90;2.70;;;;;;;;;;5015852;28;59232;-79
2024/03/08 14:39:54;;;;;;;3.20;2.90;;;;;;;;;;5013844;28;59222;-79
2024/03/08 14:42:21;;;;;;;2.85;2.58;;;;;;;;;;5023986;28;61287;-79